Time;durP1;ratioP1;P1;durP2;ratioP2;P2;SDS_P1;SDS_P2;PMS_P1;PMS_P2;Temp;Humidity;BMP_temperature;BMP_pressure;BME280_temperature;BME280_humidity;BME280_pressure;Samples;Min_cycle;Max_cycle;Signal;HPM_P1;HPM_P2
2021/07/23 00:00:16;;;;;;;8.18;7.28;;;15.80;99.90;;;;;;4935163;29;20043;-72
2021/07/23 00:02:42;;;;;;;9.63;7.75;;;15.80;99.90;;;;;;4943421;29;20043;-72
2021/07/23 00:05:09;;;;;;;12.48;7.95;;;15.70;99.90;;;;;;4953310;29;20039;-72
2021/07/23 00:07:36;;;;;;;13.35;9.63;;;15.50;99.90;;;;;;4953579;29;20031;-73
2021/07/23 00:10:03;;;;;;;10.65;8.40;;;15.30;99.90;;;;;;4952087;29;20038;-73
2021/07/23 00:12:29;;;;;;;12.02;8.15;;;15.20;99.90;;;;;;4943796;29;20035;-74
2021/07/23 00:14:55;;;;;;;11.05;8.55;;;15.20;99.90;;;;;;4941941;29;20037;-72
2021/07/23 00:17:21;;;;;;;12.48;8.23;;;15.30;99.90;;;;;;4952997;29;20465;-72
2021/07/23 00:19:48;;;;;;;11.23;8.18;;;15.30;99.90;;;;;;4953251;29;20031;-72
2021/07/23 00:22:14;;;;;;;12.93;8.57;;;15.30;99.90;;;;;;4953078;29;20035;-72
2021/07/23 00:24:40;;;;;;;12.63;8.27;;;15.30;99.90;;;;;;4953414;29;20027;-72
2021/07/23 00:27:06;;;;;;;12.60;8.38;;;15.30;99.90;;;;;;4952915;29;20035;-72
2021/07/23 00:29:32;;;;;;;12.98;9.02;;;15.10;99.90;;;;;;4952181;29;20031;-73
2021/07/23 00:31:58;;;;;;;10.90;8.32;;;14.80;99.90;;;;;;4953500;29;20153;-72
2021/07/23 00:34:25;;;;;;;11.35;8.48;;;14.60;99.90;;;;;;4954000;28;20074;-72
2021/07/23 00:36:51;;;;;;;11.57;8.45;;;14.50;99.90;;;;;;4952651;28;20064;-72
2021/07/23 00:39:17;;;;;;;14.60;9.30;;;14.40;99.90;;;;;;4953900;29;20031;-71
2021/07/23 00:41:44;;;;;;;14.68;9.20;;;14.30;99.90;;;;;;4963267;28;20405;-72
2021/07/23 00:44:11;;;;;;;12.15;7.70;;;14.30;99.90;;;;;;4975246;28;20039;-73
2021/07/23 00:46:38;;;;;;;15.13;9.60;;;14.20;99.90;;;;;;4960932;28;20050;-72
2021/07/23 00:49:07;;;;;;;14.32;9.30;;;14.20;99.90;;;;;;4966270;28;20397;-73
2021/07/23 00:51:33;;;;;;;12.98;8.93;;;14.30;99.90;;;;;;4953333;28;20370;-72
2021/07/23 00:54:01;;;;;;;15.55;9.10;;;14.50;99.90;;;;;;4956104;28;20043;-75
2021/07/23 00:56:28;;;;;;;13.73;9.05;;;14.60;99.90;;;;;;4952820;29;20054;-73
2021/07/23 00:58:55;;;;;;;14.82;9.27;;;14.60;99.90;;;;;;4950893;29;20043;-74
2021/07/23 01:01:23;;;;;;;12.68;8.55;;;14.70;99.90;;;;;;4951732;28;20048;-72
2021/07/23 01:03:51;;;;;;;12.38;8.60;;;14.70;99.90;;;;;;4952811;29;20039;-72
2021/07/23 01:06:17;;;;;;;10.55;8.25;;;14.70;99.90;;;;;;4950992;29;20043;-73
2021/07/23 01:08:44;;;;;;;13.35;9.75;;;14.60;99.90;;;;;;4953102;28;20040;-73
2021/07/23 01:11:13;;;;;;;12.93;8.63;;;14.60;99.90;;;;;;4971373;28;20426;-72
2021/07/23 01:13:40;;;;;;;16.00;8.77;;;14.60;99.90;;;;;;4956349;29;20066;-72
2021/07/23 01:16:07;;;;;;;12.15;8.63;;;14.60;99.90;;;;;;4954944;28;20047;-73
2021/07/23 01:18:34;;;;;;;16.40;9.20;;;14.60;99.90;;;;;;4971039;28;20051;-73
2021/07/23 01:21:02;;;;;;;12.63;9.18;;;14.60;99.90;;;;;;4956570;28;20047;-73
2021/07/23 01:23:30;;;;;;;15.73;9.20;;;14.70;99.90;;;;;;4971313;28;20062;-72
2021/07/23 01:25:59;;;;;;;18.15;9.40;;;14.60;99.90;;;;;;4956332;29;20392;-73
2021/07/23 01:28:29;;;;;;;16.33;9.95;;;14.40;99.90;;;;;;4970189;28;20043;-73
2021/07/23 01:31:03;;;;;;;13.50;9.65;;;14.30;99.90;;;;;;4952328;29;20054;-73
2021/07/23 01:33:36;;;;;;;16.20;9.18;;;14.30;99.90;;;;;;4955670;29;20043;-72
2021/07/23 01:36:04;;;;;;;13.38;8.85;;;14.30;99.90;;;;;;4948897;28;20043;-72
2021/07/23 01:38:37;;;;;;;12.25;9.13;;;14.40;99.90;;;;;;4969077;28;20401;-72
2021/07/23 01:41:04;;;;;;;14.85;9.95;;;14.40;99.90;;;;;;4953444;29;20043;-72
2021/07/23 01:43:32;;;;;;;18.20;9.45;;;14.50;99.90;;;;;;4971601;28;20048;-72
2021/07/23 01:45:59;;;;;;;15.55;9.32;;;14.50;99.90;;;;;;4954827;28;20055;-72
2021/07/23 01:48:46;;;;;;;11.80;8.90;;;14.50;99.90;;;;;;4938575;28;20051;-72
2021/07/23 01:51:35;;;;;;;14.60;9.35;;;14.20;99.90;;;;;;4944911;28;20044;-73
2021/07/23 01:54:02;;;;;;;13.23;9.35;;;13.90;99.90;;;;;;4970094;28;20047;-73
2021/07/23 01:56:29;;;;;;;13.35;9.13;;;13.80;99.90;;;;;;4953936;29;20043;-72
2021/07/23 01:58:59;;;;;;;15.05;9.45;;;13.70;99.90;;;;;;4969814;28;20055;-72
2021/07/23 02:01:30;;;;;;;16.05;9.75;;;13.70;99.90;;;;;;4954799;28;20043;-71
2021/07/23 02:04:14;;;;;;;14.40;9.90;;;13.60;99.90;;;;;;4955292;29;20035;-73
2021/07/23 02:06:40;;;;;;;15.40;9.07;;;13.60;99.90;;;;;;4955607;29;20039;-72
2021/07/23 02:09:08;;;;;;;15.88;10.57;;;13.60;99.90;;;;;;4969862;28;20400;-72
2021/07/23 02:11:42;;;;;;;16.52;9.93;;;13.60;99.90;;;;;;4970309;28;20046;-73
2021/07/23 02:14:12;;;;;;;13.40;9.48;;;13.60;99.90;;;;;;4968608;28;20055;-73
2021/07/23 02:16:40;;;;;;;14.35;9.93;;;13.60;99.90;;;;;;4970097;28;20055;-72
2021/07/23 02:19:07;;;;;;;13.95;9.93;;;13.60;99.90;;;;;;4954489;28;20039;-72
2021/07/23 02:21:46;;;;;;;13.10;8.82;;;13.60;99.90;;;;;;4961907;28;20043;-72
2021/07/23 02:24:12;;;;;;;13.93;9.65;;;13.60;99.90;;;;;;4957402;28;20490;-73
2021/07/23 02:26:41;;;;;;;15.02;10.35;;;13.50;99.90;;;;;;4945518;29;20035;-73
2021/07/23 02:29:07;;;;;;;14.63;10.60;;;13.40;99.90;;;;;;4952725;28;20046;-73
2021/07/23 02:31:40;;;;;;;14.85;10.02;;;13.40;99.90;;;;;;4955130;28;20469;-73
2021/07/23 02:34:13;;;;;;;14.70;10.13;;;13.40;99.90;;;;;;4968175;28;20047;-73
2021/07/23 02:36:39;;;;;;;14.75;10.77;;;13.30;99.90;;;;;;4954946;28;20492;-72
2021/07/23 02:39:08;;;;;;;15.90;11.40;;;13.30;99.90;;;;;;4968972;28;20039;-73
2021/07/23 02:41:43;;;;;;;15.60;11.07;;;13.20;99.90;;;;;;4971419;28;20050;-72
2021/07/23 02:44:10;;;;;;;17.50;11.55;;;13.20;99.90;;;;;;4950904;29;20102;-72
2021/07/23 02:46:37;;;;;;;17.40;10.55;;;13.30;99.90;;;;;;4955301;28;20043;-72
2021/07/23 02:49:03;;;;;;;15.93;11.25;;;13.50;99.90;;;;;;4937310;29;20058;-73
2021/07/23 02:51:31;;;;;;;15.60;11.18;;;13.60;99.90;;;;;;4951119;29;20052;-73
2021/07/23 02:54:00;;;;;;;16.30;11.05;;;13.60;99.90;;;;;;4969271;28;20408;-72
2021/07/23 02:56:27;;;;;;;14.85;10.40;;;13.60;99.90;;;;;;4969005;28;20039;-72
2021/07/23 02:58:56;;;;;;;13.77;9.88;;;13.60;99.90;;;;;;4954440;29;20544;-71
2021/07/23 03:01:24;;;;;;;13.38;9.98;;;13.60;99.90;;;;;;4969081;28;20226;-72
2021/07/23 03:03:52;;;;;;;12.00;10.07;;;13.60;99.90;;;;;;4969019;28;20039;-74
2021/07/23 03:06:19;;;;;;;14.52;9.98;;;13.70;99.90;;;;;;4952450;29;20051;-71
2021/07/23 03:08:46;;;;;;;14.48;10.60;;;13.50;99.90;;;;;;4945810;28;20039;-71
2021/07/23 03:11:15;;;;;;;15.02;10.30;;;13.30;99.90;;;;;;4953791;29;20031;-72
2021/07/23 03:13:58;;;;;;;17.60;10.63;;;13.20;99.90;;;;;;4953901;29;20050;-72
2021/07/23 03:16:25;;;;;;;13.68;10.65;;;13.20;99.90;;;;;;4954378;28;20043;-72
2021/07/23 03:18:53;;;;;;;14.23;10.55;;;13.20;99.90;;;;;;4963733;28;20485;-72
2021/07/23 03:21:21;;;;;;;15.43;10.45;;;13.30;99.90;;;;;;4967277;28;20039;-72
2021/07/23 03:23:50;;;;;;;15.80;11.15;;;13.20;99.90;;;;;;4950566;29;20039;-72
2021/07/23 03:26:19;;;;;;;11.70;9.20;;;13.20;99.90;;;;;;4942198;29;20039;-72
2021/07/23 03:28:48;;;;;;;14.18;9.82;;;13.20;99.90;;;;;;4953426;28;20044;-72
2021/07/23 03:31:19;;;;;;;16.65;10.90;;;13.20;99.90;;;;;;4967428;28;20051;-72
2021/07/23 03:33:51;;;;;;;13.60;10.93;;;13.20;99.90;;;;;;4968688;28;20043;-72
2021/07/23 03:36:37;;;;;;;13.43;10.00;;;13.20;99.90;;;;;;4935855;29;20054;-72
2021/07/23 03:39:04;;;;;;;17.48;10.10;;;13.20;99.90;;;;;;4967115;28;20043;-72
2021/07/23 03:41:31;;;;;;;14.90;11.20;;;13.30;99.90;;;;;;4953395;29;20035;-72
2021/07/23 03:44:01;;;;;;;14.23;10.55;;;13.30;99.90;;;;;;4952902;28;20044;-72
2021/07/23 03:46:30;;;;;;;15.45;11.82;;;13.20;99.90;;;;;;4967970;28;20043;-72
2021/07/23 03:48:57;;;;;;;13.50;10.50;;;13.10;99.90;;;;;;4951292;28;20047;-72
2021/07/23 03:51:35;;;;;;;17.20;10.07;;;13.20;99.90;;;;;;4946807;29;20035;-72
2021/07/23 03:54:02;;;;;;;14.45;11.02;;;13.20;99.90;;;;;;4969638;28;20047;-72
2021/07/23 03:56:28;;;;;;;14.55;11.10;;;13.30;99.90;;;;;;4967964;28;20115;-72
2021/07/23 03:58:56;;;;;;;13.93;10.93;;;13.20;99.90;;;;;;4948809;29;20047;-72
2021/07/23 04:01:41;;;;;;;15.27;10.13;;;13.30;99.90;;;;;;4959495;28;20404;-72
2021/07/23 04:04:07;;;;;;;13.82;10.02;;;13.40;99.90;;;;;;4937578;29;20051;-72
2021/07/23 04:06:34;;;;;;;16.80;9.98;;;13.30;99.90;;;;;;4967319;28;20043;-72
2021/07/23 04:09:04;;;;;;;;;;;13.40;99.90;;;;;;4964262;28;20051;-72
2021/07/23 04:11:53;;;;;;;16.73;11.02;;;13.40;99.90;;;;;;4936957;28;19921;-72
2021/07/23 04:14:22;;;;;;;14.45;10.32;;;13.40;99.90;;;;;;4951560;28;20386;-72
2021/07/23 04:16:50;;;;;;;17.48;11.02;;;13.50;99.90;;;;;;4969383;28;20474;-72
2021/07/23 04:19:17;;;;;;;16.30;11.25;;;13.50;99.90;;;;;;4951518;28;20043;-72
2021/07/23 04:22:06;;;;;;;13.70;9.57;;;13.60;99.90;;;;;;4953304;29;20035;-72
2021/07/23 04:24:43;;;;;;;14.90;10.38;;;13.60;99.90;;;;;;4968141;28;20047;-72
2021/07/23 04:27:13;;;;;;;14.90;10.25;;;13.60;99.90;;;;;;4968593;28;20051;-74
2021/07/23 04:29:48;;;;;;;14.25;9.80;;;13.70;99.90;;;;;;4933922;29;20043;-72
2021/07/23 04:32:17;;;;;;;12.55;9.02;;;13.80;99.90;;;;;;4949759;29;20039;-72
2021/07/23 04:34:44;;;;;;;14.20;9.07;;;13.70;99.90;;;;;;4951963;29;20035;-72
2021/07/23 04:37:17;;;;;;;13.05;8.70;;;13.70;99.90;;;;;;4966478;28;20050;-72
2021/07/23 04:39:57;;;;;;;14.20;8.77;;;13.90;99.90;;;;;;4968641;28;20385;-73
2021/07/23 04:42:24;;;;;;;12.95;8.55;;;14.40;99.90;;;;;;4952358;28;20392;-72
2021/07/23 04:44:50;;;;;;;13.85;9.90;;;14.70;99.90;;;;;;4957005;28;20050;-72
2021/07/23 04:47:16;;;;;;;12.88;9.07;;;15.10;99.90;;;;;;4956482;28;20370;-72
2021/07/23 04:49:45;;;;;;;14.07;9.63;;;15.40;99.90;;;;;;4971575;28;20051;-72
2021/07/23 04:52:20;;;;;;;10.43;7.65;;;15.70;99.90;;;;;;4961699;28;20069;-71
2021/07/23 04:55:24;;;;;;;10.70;7.85;;;16.00;99.90;;;;;;4956082;28;20039;-73
2021/07/23 04:58:01;;;;;;;13.10;9.35;;;16.40;99.90;;;;;;4956430;28;20047;-74
2021/07/23 05:00:27;;;;;;;14.38;9.10;;;16.60;99.90;;;;;;4939559;29;20532;-73
2021/07/23 05:02:57;;;;;;;10.68;9.05;;;16.90;99.90;;;;;;4945932;28;20058;-73
2021/07/23 05:05:23;;;;;;;11.43;8.45;;;17.20;99.90;;;;;;4957223;29;20039;-72
2021/07/23 05:07:50;;;;;;;11.93;9.00;;;17.50;99.90;;;;;;4956986;28;20062;-73
2021/07/23 05:10:17;;;;;;;15.48;8.65;;;18.20;99.90;;;;;;4973429;28;20039;-72
2021/07/23 05:12:43;;;;;;;11.73;9.43;;;19.00;98.90;;;;;;4973037;28;20043;-73
2021/07/23 05:15:11;;;;;;;13.15;9.98;;;19.50;96.40;;;;;;4977244;28;20038;-74
2021/07/23 05:17:38;;;;;;;10.75;9.38;;;19.10;95.80;;;;;;4968171;28;20027;-73
2021/07/23 05:20:06;;;;;;;12.52;9.88;;;19.00;96.30;;;;;;4955534;28;20401;-73
2021/07/23 05:22:33;;;;;;;11.70;9.60;;;19.00;96.30;;;;;;4956290;28;20043;-73
2021/07/23 05:24:59;;;;;;;12.80;9.70;;;18.70;96.80;;;;;;4956336;29;20039;-70
2021/07/23 05:27:26;;;;;;;13.07;9.40;;;18.70;97.20;;;;;;4955611;29;20377;-72
2021/07/23 05:29:52;;;;;;;15.55;9.55;;;18.60;97.30;;;;;;4955812;29;20034;-71
2021/07/23 05:32:19;;;;;;;12.32;9.10;;;19.20;96.70;;;;;;4956125;28;20516;-72
2021/07/23 05:34:45;;;;;;;12.27;9.40;;;19.50;95.80;;;;;;4955505;28;20400;-71
2021/07/23 05:37:11;;;;;;;15.30;10.50;;;19.80;95.60;;;;;;4947169;29;20054;-72
2021/07/23 05:39:41;;;;;;;12.07;9.85;;;19.80;95.20;;;;;;4938008;29;20032;-71
2021/07/23 05:42:08;;;;;;;;;;;19.80;95.20;;;;;;4945711;29;20036;-71
2021/07/23 05:44:34;;;;;;;12.50;10.25;;;19.90;95.10;;;;;;4956014;29;19921;-72
2021/07/23 05:47:00;;;;;;;16.75;11.07;;;20.40;93.70;;;;;;4941770;28;20392;-72
2021/07/23 05:49:28;;;;;;;12.02;9.35;;;20.30;93.60;;;;;;4942192;28;20473;-72
2021/07/23 05:51:54;;;;;;;12.43;8.90;;;20.10;93.90;;;;;;4955743;29;20384;-74
2021/07/23 05:54:21;;;;;;;12.25;9.45;;;20.70;92.90;;;;;;4956036;28;20043;-71
2021/07/23 05:56:47;;;;;;;10.73;9.23;;;21.20;91.90;;;;;;4957548;29;20372;-71
2021/07/23 05:59:14;;;;;;;11.70;9.80;;;21.00;91.40;;;;;;4954685;28;20043;-72
2021/07/23 06:01:40;;;;;;;12.15;9.40;;;20.70;92.20;;;;;;4955436;29;20501;-72
2021/07/23 06:04:06;;;;;;;10.45;8.00;;;20.90;91.50;;;;;;4955312;29;20043;-72
2021/07/23 06:06:32;;;;;;;13.18;9.82;;;20.90;91.20;;;;;;4955631;28;20342;-73
2021/07/23 06:09:00;;;;;;;13.40;9.45;;;21.40;90.40;;;;;;4954448;29;20039;-72
2021/07/23 06:11:26;;;;;;;10.75;9.00;;;22.00;88.10;;;;;;4953672;29;20042;-72
2021/07/23 06:13:53;;;;;;;15.32;9.50;;;21.70;87.70;;;;;;4947594;28;20477;-72
2021/07/23 06:16:19;;;;;;;12.57;8.93;;;21.70;88.40;;;;;;4945987;28;20055;-72
2021/07/23 06:18:45;;;;;;;14.30;9.32;;;20.90;90.10;;;;;;4954886;29;20034;-70
2021/07/23 06:21:13;;;;;;;11.15;9.23;;;20.50;90.60;;;;;;4954719;29;20479;-71
2021/07/23 06:23:39;;;;;;;12.75;9.40;;;20.50;90.70;;;;;;4954862;29;20038;-70
2021/07/23 06:26:06;;;;;;;14.27;9.38;;;21.60;88.40;;;;;;4955619;28;20157;-71
2021/07/23 06:28:32;;;;;;;11.43;10.20;;;22.10;86.90;;;;;;4961907;28;20043;-71
2021/07/23 06:31:03;;;;;;;11.13;9.20;;;22.00;86.70;;;;;;4949051;28;20035;-73
2021/07/23 06:33:29;;;;;;;12.60;9.43;;;22.40;85.40;;;;;;4953527;29;20111;-73
2021/07/23 06:35:56;;;;;;;15.32;8.68;;;23.10;83.50;;;;;;4954254;28;20054;-74
2021/07/23 06:38:22;;;;;;;12.68;8.50;;;23.70;80.80;;;;;;4961319;29;20042;-73
2021/07/23 06:40:48;;;;;;;13.25;9.13;;;23.30;80.10;;;;;;4958404;28;20512;-75
2021/07/23 06:43:14;;;;;;;10.05;8.48;;;23.20;81.60;;;;;;4952479;28;20489;-75
2021/07/23 06:45:41;;;;;;;10.85;8.65;;;23.10;80.90;;;;;;4948219;29;20042;-75
2021/07/23 06:48:07;;;;;;;9.13;8.23;;;23.20;81.00;;;;;;4968450;28;20054;-75
2021/07/23 06:50:33;;;;;;;10.68;8.07;;;22.30;81.70;;;;;;4954182;29;20031;-75
2021/07/23 06:53:02;;;;;;;11.93;9.18;;;22.30;82.80;;;;;;4953270;29;20488;-74
2021/07/23 06:55:29;;;;;;;11.90;9.00;;;22.20;83.60;;;;;;4954017;29;20050;-75
2021/07/23 06:57:58;;;;;;;11.23;8.38;;;23.00;81.50;;;;;;4954301;29;20452;-74
2021/07/23 07:00:24;;;;;;;13.40;8.80;;;24.60;77.30;;;;;;4969236;28;20074;-75
2021/07/23 07:02:51;;;;;;;10.23;7.65;;;24.60;76.10;;;;;;4935925;29;20047;-75
2021/07/23 07:05:18;;;;;;;10.20;8.23;;;25.20;75.30;;;;;;4970248;28;20062;-75
2021/07/23 07:07:44;;;;;;;9.75;7.68;;;25.30;73.60;;;;;;4943183;29;20466;-74
2021/07/23 07:10:11;;;;;;;13.15;8.13;;;25.60;71.70;;;;;;4954559;28;20504;-75
2021/07/23 07:12:37;;;;;;;12.13;7.28;;;24.20;74.30;;;;;;4957813;28;20043;-75
2021/07/23 07:15:04;;;;;;;9.95;7.28;;;24.50;75.00;;;;;;4942411;29;20047;-74
2021/07/23 07:17:30;;;;;;;10.00;7.45;;;24.90;72.50;;;;;;4952843;29;20035;-74
2021/07/23 07:20:00;;;;;;;12.82;8.52;;;24.70;72.00;;;;;;4955694;29;20394;-75
2021/07/23 07:22:27;;;;;;;10.98;7.10;;;24.80;70.30;;;;;;4953710;29;20035;-75
2021/07/23 07:24:53;;;;;;;10.18;7.25;;;24.80;71.80;;;;;;4953000;29;20390;-74
2021/07/23 07:27:20;;;;;;;9.80;6.90;;;25.20;69.10;;;;;;4953901;29;20039;-74
2021/07/23 07:29:47;;;;;;;9.68;7.53;;;25.80;68.20;;;;;;4953753;29;20473;-76
2021/07/23 07:32:13;;;;;;;9.00;7.55;;;25.90;68.00;;;;;;4953117;29;20496;-75
2021/07/23 07:34:39;;;;;;;8.88;7.65;;;25.00;71.80;;;;;;4937100;28;20483;-75
2021/07/23 07:37:06;;;;;;;11.40;7.32;;;25.80;69.20;;;;;;4949554;29;20035;-75
2021/07/23 07:39:32;;;;;;;9.60;7.47;;;24.70;71.70;;;;;;4953591;29;20034;-75
2021/07/23 07:42:00;;;;;;;8.80;7.13;;;24.60;71.00;;;;;;4954286;28;20047;-75
2021/07/23 07:44:27;;;;;;;12.63;6.90;;;25.30;70.50;;;;;;4953403;29;20046;-75
2021/07/23 07:46:53;;;;;;;10.35;7.18;;;24.90;69.70;;;;;;4952599;29;20031;-75
2021/07/23 07:49:22;;;;;;;11.05;7.60;;;25.60;68.50;;;;;;4953294;28;20043;-74
2021/07/23 07:51:48;;;;;;;10.75;8.05;;;24.60;70.70;;;;;;4953914;28;20043;-76
2021/07/23 07:54:14;;;;;;;16.13;7.65;;;25.50;72.30;;;;;;4953424;29;20038;-75
2021/07/23 07:56:41;;;;;;;9.20;7.03;;;26.80;65.40;;;;;;4953780;29;20023;-75
2021/07/23 07:59:08;;;;;;;9.02;7.00;;;27.00;64.20;;;;;;4953473;29;20048;-75
2021/07/23 08:01:34;;;;;;;9.07;7.40;;;25.90;66.10;;;;;;4953295;29;20031;-75
2021/07/23 08:04:00;;;;;;;8.82;7.85;;;25.10;67.70;;;;;;4952508;28;20058;-74
2021/07/23 08:06:32;;;;;;;8.48;7.35;;;25.70;68.30;;;;;;4951673;28;20058;-75
2021/07/23 08:09:04;;;;;;;9.35;7.40;;;25.10;68.70;;;;;;4939837;29;20485;-75
2021/07/23 08:11:32;;;;;;;12.38;7.63;;;25.60;66.00;;;;;;4954058;28;20046;-75
2021/07/23 08:13:59;;;;;;;9.52;6.60;;;25.50;66.70;;;;;;4946424;29;20391;-75
2021/07/23 08:16:25;;;;;;;8.68;7.47;;;24.90;67.90;;;;;;4934927;29;20039;-75
2021/07/23 08:18:52;;;;;;;10.35;6.22;;;25.60;65.70;;;;;;4951737;28;20038;-75
2021/07/23 08:21:18;;;;;;;7.40;6.22;;;26.70;65.30;;;;;;4960066;28;20389;-75
2021/07/23 08:23:44;;;;;;;9.38;6.85;;;28.00;60.10;;;;;;4944529;29;20505;-74
2021/07/23 08:26:10;;;;;;;7.65;6.70;;;27.40;62.50;;;;;;4941938;29;20035;-74
2021/07/23 08:28:36;;;;;;;7.90;6.93;;;26.40;63.80;;;;;;4952875;28;20035;-74
2021/07/23 08:31:04;;;;;;;8.52;7.10;;;26.00;63.50;;;;;;4940893;29;20042;-74
2021/07/23 08:33:30;;;;;;;11.30;6.97;;;26.00;63.70;;;;;;4945456;28;20408;-74
2021/07/23 08:35:56;;;;;;;11.98;8.30;;;25.60;67.20;;;;;;4953109;29;20035;-75
2021/07/23 08:38:22;;;;;;;8.32;7.40;;;25.80;66.60;;;;;;4953125;28;20040;-75
2021/07/23 08:40:49;;;;;;;10.48;7.05;;;25.40;66.40;;;;;;4953156;29;20038;-74
2021/07/23 08:43:15;;;;;;;9.82;6.85;;;25.10;68.40;;;;;;4953892;29;20362;-74
2021/07/23 08:45:42;;;;;;;9.18;7.30;;;24.90;66.20;;;;;;4953406;28;20052;-75
2021/07/23 08:48:08;;;;;;;9.45;7.72;;;25.40;65.40;;;;;;4952019;29;20503;-74
2021/07/23 08:50:34;;;;;;;12.43;7.15;;;26.60;62.20;;;;;;4953412;29;20027;-74
2021/07/23 08:53:09;;;;;;;9.85;7.13;;;26.60;63.10;;;;;;4953700;29;20377;-74
2021/07/23 08:55:35;;;;;;;10.85;6.90;;;26.50;62.10;;;;;;4951465;29;20047;-75
2021/07/23 08:58:02;;;;;;;9.25;7.38;;;26.70;61.40;;;;;;4952715;29;20047;-75
2021/07/23 09:00:28;;;;;;;9.27;6.93;;;26.50;61.80;;;;;;4952525;28;20062;-74
2021/07/23 09:03:00;;;;;;;11.00;7.25;;;25.40;62.90;;;;;;4953873;29;20051;-74
2021/07/23 09:05:28;;;;;;;8.25;6.75;;;25.30;64.40;;;;;;4951307;29;20393;-75
2021/07/23 09:08:02;;;;;;;10.25;7.15;;;25.40;63.30;;;;;;4953057;29;20492;-76
2021/07/23 09:10:30;;;;;;;9.52;6.97;;;25.30;63.70;;;;;;4951540;29;20031;-75
2021/07/23 09:13:01;;;;;;;7.70;6.90;;;25.30;64.00;;;;;;4953802;28;20390;-75
2021/07/23 09:15:30;;;;;;;12.70;7.10;;;26.30;62.10;;;;;;4952654;29;20500;-75
2021/07/23 09:17:57;;;;;;;9.38;7.13;;;27.40;61.50;;;;;;4945918;29;20035;-75
2021/07/23 09:20:28;;;;;;;9.93;7.60;;;28.20;59.30;;;;;;4944832;29;20035;-74
2021/07/23 09:22:58;;;;;;;8.98;7.13;;;27.90;58.80;;;;;;4967147;28;20047;-75
2021/07/23 09:25:43;;;;;;;;;;;28.40;58.00;;;;;;4937085;29;20040;-74
2021/07/23 09:28:24;;;;;;;10.07;7.30;;;27.90;58.00;;;;;;4953350;29;19915;-76
2021/07/23 09:30:51;;;;;;;9.95;6.82;;;26.50;59.30;;;;;;4955786;29;20040;-75
2021/07/23 09:33:24;;;;;;;7.82;7.05;;;27.40;59.80;;;;;;4956342;28;20385;-75
2021/07/23 09:35:55;;;;;;;7.80;6.65;;;28.40;57.60;;;;;;4947522;28;20386;-74
2021/07/23 09:38:23;;;;;;;7.75;6.63;;;27.50;58.60;;;;;;4937791;29;20031;-77
2021/07/23 09:40:52;;;;;;;7.72;6.57;;;27.70;56.20;;;;;;4946133;29;20034;-75
2021/07/23 09:43:29;;;;;;;7.80;6.60;;;27.90;56.30;;;;;;4945683;29;20035;-75
2021/07/23 09:45:55;;;;;;;8.98;6.93;;;27.90;56.00;;;;;;4955223;28;20055;-74
2021/07/23 09:48:21;;;;;;;7.28;6.57;;;27.80;55.50;;;;;;4957344;29;20028;-75
2021/07/23 09:50:48;;;;;;;9.00;7.25;;;27.30;57.20;;;;;;4966765;28;20047;-74
2021/07/23 09:53:19;;;;;;;7.93;6.43;;;26.70;56.80;;;;;;4964328;28;20044;-78
2021/07/23 09:55:49;;;;;;;10.98;6.93;;;26.90;55.60;;;;;;4969750;28;20039;-77
2021/07/23 09:58:20;;;;;;;9.57;7.00;;;27.10;54.20;;;;;;4954108;29;20051;-76
2021/07/23 10:00:53;;;;;;;7.82;7.03;;;27.10;54.70;;;;;;4954402;29;20035;-76
2021/07/23 10:03:22;;;;;;;9.20;7.03;;;26.60;54.50;;;;;;4949537;29;20028;-77
2021/07/23 10:05:58;;;;;;;9.20;6.97;;;27.10;54.20;;;;;;4939493;29;20481;-78
2021/07/23 10:08:30;;;;;;;8.00;7.03;;;27.40;53.60;;;;;;4969465;28;20446;-77
2021/07/23 10:11:00;;;;;;;8.10;7.30;;;27.50;53.20;;;;;;4951964;28;20051;-78
2021/07/23 10:13:29;;;;;;;10.68;7.25;;;27.30;53.90;;;;;;4953000;28;20732;-76
2021/07/23 10:15:57;;;;;;;7.30;6.43;;;27.00;54.10;;;;;;4945404;28;20051;-75
2021/07/23 10:18:23;;;;;;;11.82;7.93;;;27.10;55.30;;;;;;4959673;28;20372;-78
2021/07/23 10:20:50;;;;;;;9.55;7.13;;;27.20;54.90;;;;;;4968618;28;20043;-73
2021/07/23 10:23:21;;;;;;;9.25;7.07;;;27.00;54.40;;;;;;4953990;29;20035;-72
2021/07/23 10:25:52;;;;;;;9.75;8.15;;;26.50;55.40;;;;;;4954137;28;20489;-74
2021/07/23 10:28:36;;;;;;;8.73;7.57;;;26.60;54.80;;;;;;4952590;28;20485;-74
2021/07/23 10:31:18;;;;;;;9.07;7.80;;;26.30;55.40;;;;;;4953418;29;20043;-74
2021/07/23 10:33:53;;;;;;;9.27;8.27;;;26.70;55.50;;;;;;4953368;29;20461;-76
2021/07/23 10:36:30;;;;;;;8.52;7.18;;;26.40;53.70;;;;;;4963678;29;20027;-74
2021/07/23 10:39:07;;;;;;;8.95;8.00;;;26.00;53.30;;;;;;4978976;28;20047;-75
2021/07/23 10:41:34;;;;;;;8.30;7.50;;;26.30;53.60;;;;;;4938057;28;20402;-75
2021/07/23 10:44:02;;;;;;;11.18;7.97;;;26.30;53.00;;;;;;4951795;29;20039;-74
2021/07/23 10:46:43;;;;;;;11.70;8.10;;;26.00;53.70;;;;;;4954432;29;20035;-75
2021/07/23 10:49:31;;;;;;;8.32;7.47;;;26.40;54.60;;;;;;4953784;29;20050;-74
2021/07/23 10:52:02;;;;;;;11.05;7.50;;;26.40;55.20;;;;;;4950206;28;20046;-74
2021/07/23 10:54:34;;;;;;;8.15;6.82;;;26.40;55.40;;;;;;4941622;28;20398;-75
2021/07/23 10:57:04;;;;;;;8.52;7.63;;;26.50;54.90;;;;;;4953950;29;20381;-75
2021/07/23 10:59:40;;;;;;;9.18;7.90;;;26.70;53.20;;;;;;4953846;29;20501;-75
2021/07/23 11:02:06;;;;;;;9.50;7.57;;;26.80;53.40;;;;;;4953995;28;20420;-75
2021/07/23 11:04:33;;;;;;;10.43;8.18;;;26.80;53.70;;;;;;4952732;29;20509;-72
2021/07/23 11:07:04;;;;;;;8.10;7.30;;;26.60;54.50;;;;;;4954170;28;20051;-72
2021/07/23 11:09:31;;;;;;;10.38;8.38;;;26.80;54.10;;;;;;4950387;29;20492;-72
2021/07/23 11:12:14;;;;;;;8.73;7.47;;;27.00;52.50;;;;;;4961845;28;20465;-74
2021/07/23 11:14:41;;;;;;;8.18;7.35;;;27.00;53.20;;;;;;4950062;28;20389;-71
2021/07/23 11:17:08;;;;;;;9.82;7.28;;;26.30;53.50;;;;;;4953078;28;20381;-72
2021/07/23 11:19:35;;;;;;;9.45;7.25;;;26.10;54.10;;;;;;4951145;29;20504;-72
2021/07/23 11:22:02;;;;;;;9.70;7.43;;;26.40;54.40;;;;;;4953169;28;20393;-73
2021/07/23 11:24:36;;;;;;;8.10;7.28;;;26.40;53.10;;;;;;4952832;28;20055;-73
2021/07/23 11:27:04;;;;;;;9.05;8.15;;;26.80;54.40;;;;;;4952759;28;20106;-73
2021/07/23 11:29:35;;;;;;;11.80;7.23;;;27.10;53.20;;;;;;4952425;29;20027;-74
2021/07/23 11:32:09;;;;;;;10.23;7.57;;;27.40;53.00;;;;;;4952030;28;20355;-75
2021/07/23 11:34:39;;;;;;;9.15;7.68;;;26.90;52.60;;;;;;4952286;28;20051;-75
2021/07/23 11:37:25;;;;;;;9.77;7.78;;;26.20;53.70;;;;;;4953476;29;20035;-75
2021/07/23 11:39:57;;;;;;;8.63;7.72;;;26.70;52.70;;;;;;4954044;29;20035;-75
2021/07/23 11:42:25;;;;;;;9.38;7.55;;;26.60;51.00;;;;;;4953659;29;20042;-75
2021/07/23 11:44:55;;;;;;;8.43;7.53;;;26.50;51.00;;;;;;4951702;28;20035;-75
2021/07/23 11:47:41;;;;;;;8.38;7.00;;;26.70;52.50;;;;;;4953324;28;20047;-75
2021/07/23 11:50:10;;;;;;;9.15;7.90;;;27.10;52.10;;;;;;4949143;29;20042;-75
2021/07/23 11:52:37;;;;;;;9.35;8.02;;;27.00;54.10;;;;;;4936116;28;20035;-75
2021/07/23 11:55:07;;;;;;;8.63;7.80;;;27.10;52.80;;;;;;4947641;29;20039;-75
2021/07/23 11:57:45;;;;;;;9.95;7.35;;;27.20;51.20;;;;;;4949595;29;20238;-77
2021/07/23 12:00:22;;;;;;;11.60;8.10;;;27.10;51.40;;;;;;4942178;29;20039;-75
2021/07/23 12:02:50;;;;;;;10.00;7.85;;;27.00;52.00;;;;;;4952464;29;20046;-77
2021/07/23 12:05:17;;;;;;;9.70;8.05;;;27.20;51.20;;;;;;4953288;29;20039;-76
2021/07/23 12:07:55;;;;;;;10.35;7.95;;;27.20;51.70;;;;;;4953380;29;20047;-79
2021/07/23 12:10:21;;;;;;;9.68;7.72;;;27.20;50.60;;;;;;4950660;29;20035;-76
2021/07/23 12:12:47;;;;;;;10.15;7.43;;;27.40;51.50;;;;;;4935408;29;20035;-76
2021/07/23 12:15:17;;;;;;;8.90;7.10;;;27.40;51.20;;;;;;4935914;29;20035;-77
2021/07/23 12:17:44;;;;;;;9.18;7.70;;;27.80;52.30;;;;;;4944313;29;20027;-77
2021/07/23 12:20:13;;;;;;;8.55;7.65;;;28.30;50.90;;;;;;4952971;28;20091;-77
2021/07/23 12:22:40;;;;;;;8.75;7.85;;;28.20;50.00;;;;;;4954208;28;20042;-76
2021/07/23 12:25:16;;;;;;;11.23;8.68;;;28.20;50.40;;;;;;4953789;28;20050;-76
2021/07/23 12:27:43;;;;;;;8.35;7.47;;;27.80;50.60;;;;;;4951579;28;20035;-76
2021/07/23 12:30:11;;;;;;;10.77;8.07;;;27.80;51.20;;;;;;4962215;28;20047;-75
2021/07/23 12:32:38;;;;;;;8.52;7.68;;;27.80;50.00;;;;;;4953242;29;20480;-75
2021/07/23 12:35:04;;;;;;;9.00;7.53;;;27.60;49.80;;;;;;4953497;29;20046;-76
2021/07/23 12:37:31;;;;;;;9.77;7.03;;;27.70;50.60;;;;;;4952909;29;20047;-75
2021/07/23 12:40:05;;;;;;;8.50;7.05;;;27.20;49.20;;;;;;4946785;29;20024;-76
2021/07/23 12:42:34;;;;;;;11.02;7.75;;;27.40;50.20;;;;;;4953677;29;20425;-74
2021/07/23 12:45:00;;;;;;;9.90;7.70;;;27.40;49.50;;;;;;4951191;28;20369;-76
2021/07/23 12:47:27;;;;;;;13.65;8.30;;;26.90;50.20;;;;;;4952959;29;20050;-75
2021/07/23 12:49:55;;;;;;;8.82;7.47;;;27.30;51.40;;;;;;4953132;29;20042;-76